Time;durP1;ratioP1;P1;durP2;ratioP2;P2;SDS_P1;SDS_P2;PMS_P1;PMS_P2;Temp;Humidity;BMP_temperature;BMP_pressure;BME280_temperature;BME280_humidity;BME280_pressure;Samples;Min_cycle;Max_cycle;Signal;HPM_P1;HPM_P2
2022/11/14 00:00:16;;;;;;;5.63;3.08;;;22.90;50.20;;;;;;5031174;28;20243;-55
2022/11/14 00:02:47;;;;;;;4.97;2.20;;;22.90;50.10;;;;;;5030669;28;20204;-53
2022/11/14 00:05:18;;;;;;;4.65;2.33;;;23.00;50.20;;;;;;5030622;28;20228;-51
2022/11/14 00:07:49;;;;;;;7.07;2.70;;;22.90;50.10;;;;;;5030997;28;20196;-47
2022/11/14 00:10:22;;;;;;;5.57;2.50;;;23.00;50.10;;;;;;5010854;28;20692;-56
2022/11/14 00:12:53;;;;;;;5.38;2.42;;;23.00;50.00;;;;;;5010055;28;20200;-47
2022/11/14 00:15:24;;;;;;;6.05;2.47;;;23.00;50.00;;;;;;5031286;28;20546;-46
2022/11/14 00:17:55;;;;;;;7.57;2.67;;;23.00;50.00;;;;;;5032445;28;20351;-46
2022/11/14 00:20:25;;;;;;;4.07;2.38;;;23.00;50.00;;;;;;5030452;28;20216;-50
2022/11/14 00:22:56;;;;;;;8.57;3.13;;;23.00;50.10;;;;;;5030153;28;20207;-53
2022/11/14 00:25:29;;;;;;;5.88;3.05;;;23.10;50.20;;;;;;5031053;28;20250;-52
2022/11/14 00:28:00;;;;;;;7.20;2.72;;;23.10;50.20;;;;;;5029952;28;20203;-46
2022/11/14 00:30:31;;;;;;;7.75;2.60;;;23.00;50.10;;;;;;5030544;28;20845;-51
2022/11/14 00:33:01;;;;;;;6.05;2.40;;;23.10;50.20;;;;;;5030805;28;20196;-50
2022/11/14 00:35:32;;;;;;;7.85;2.88;;;23.10;50.10;;;;;;5030526;28;20563;-46
2022/11/14 00:38:03;;;;;;;4.97;2.45;;;23.10;50.10;;;;;;5030044;28;20196;-49
2022/11/14 00:40:35;;;;;;;5.80;2.28;;;23.10;50.10;;;;;;5030466;28;20219;-50
2022/11/14 00:43:06;;;;;;;4.50;2.55;;;23.10;50.10;;;;;;5030430;28;20200;-47
2022/11/14 00:45:37;;;;;;;7.82;2.80;;;23.10;50.10;;;;;;5029623;28;20621;-50
2022/11/14 00:48:08;;;;;;;7.60;2.95;;;23.20;50.00;;;;;;5030498;28;20577;-48
2022/11/14 00:50:39;;;;;;;5.18;2.38;;;23.20;50.00;;;;;;5029434;28;20228;-51
2022/11/14 00:53:10;;;;;;;6.68;2.60;;;23.20;50.00;;;;;;5016847;28;20201;-47
2022/11/14 00:55:44;;;;;;;6.28;2.75;;;23.20;50.00;;;;;;5010649;28;20197;-48
2022/11/14 00:58:15;;;;;;;5.63;2.25;;;23.20;50.00;;;;;;5009826;28;20295;-48
2022/11/14 01:00:46;;;;;;;5.50;2.65;;;23.20;50.00;;;;;;5010546;28;20713;-46
2022/11/14 01:03:17;;;;;;;7.82;2.45;;;23.20;50.00;;;;;;5023683;28;20279;-54
2022/11/14 01:05:49;;;;;;;5.30;2.30;;;23.20;50.00;;;;;;5018096;28;20234;-48
2022/11/14 01:08:21;;;;;;;7.32;2.50;;;23.20;50.00;;;;;;5010186;28;20296;-49
2022/11/14 01:10:54;;;;;;;5.57;2.47;;;23.20;50.00;;;;;;5010823;28;20225;-50
2022/11/14 01:13:25;;;;;;;6.45;3.05;;;23.20;50.00;;;;;;5010460;28;20677;-47
2022/11/14 01:15:56;;;;;;;4.63;2.10;;;23.30;50.00;;;;;;5010815;28;20671;-49
2022/11/14 01:18:27;;;;;;;6.15;2.53;;;23.30;50.00;;;;;;5010564;28;20204;-47
2022/11/14 01:20:57;;;;;;;6.25;2.80;;;23.30;49.90;;;;;;5011178;28;20225;-47
2022/11/14 01:23:29;;;;;;;5.63;2.45;;;23.30;49.90;;;;;;5017369;28;20644;-47
2022/11/14 01:26:05;;;;;;;7.05;2.75;;;23.30;49.90;;;;;;5030822;28;20235;-47
2022/11/14 01:28:36;;;;;;;6.63;2.78;;;23.30;49.90;;;;;;5030608;28;20647;-48
2022/11/14 01:31:18;;;;;;;4.30;2.20;;;23.30;49.90;;;;;;5030539;28;20220;-51
2022/11/14 01:33:51;;;;;;;6.75;2.67;;;23.30;49.90;;;;;;5030715;28;20210;-50
2022/11/14 01:36:23;;;;;;;7.10;2.65;;;23.30;49.90;;;;;;5014227;28;20200;-46
2022/11/14 01:38:56;;;;;;;7.50;2.15;;;23.30;49.90;;;;;;5010853;28;20589;-47
2022/11/14 01:41:28;;;;;;;7.45;2.60;;;23.30;49.90;;;;;;5017513;28;20724;-47
2022/11/14 01:43:59;;;;;;;8.77;2.40;;;23.30;49.90;;;;;;5030779;28;20200;-49
2022/11/14 01:46:32;;;;;;;6.80;2.67;;;23.30;49.90;;;;;;5032095;28;20235;-49
2022/11/14 01:49:08;;;;;;;5.30;2.53;;;23.30;49.90;;;;;;5051560;28;20206;-48
2022/11/14 01:51:42;;;;;;;7.45;2.60;;;23.30;49.90;;;;;;5054122;28;20218;-46
2022/11/14 01:54:18;;;;;;;6.50;2.28;;;23.30;49.80;;;;;;5053892;28;20190;-49
2022/11/14 01:56:55;;;;;;;6.45;2.40;;;23.30;49.80;;;;;;5053849;28;20199;-47
2022/11/14 01:59:30;;;;;;;4.82;2.58;;;23.40;49.80;;;;;;5045072;28;20195;-47
2022/11/14 02:02:05;;;;;;;6.50;2.30;;;23.40;49.80;;;;;;5033391;28;20275;-53
2022/11/14 02:04:39;;;;;;;8.77;2.83;;;23.40;49.80;;;;;;5031494;28;20199;-53
2022/11/14 02:07:11;;;;;;;7.25;2.83;;;23.40;49.70;;;;;;5013435;28;20232;-50
2022/11/14 02:09:45;;;;;;;6.13;2.85;;;23.40;50.30;;;;;;5013554;28;20580;-46
2022/11/14 02:12:20;;;;;;;9.63;2.53;;;23.40;49.70;;;;;;5013740;28;20197;-52
2022/11/14 02:14:53;;;;;;;6.95;2.30;;;23.40;49.70;;;;;;5014316;28;20200;-49
2022/11/14 02:17:25;;;;;;;4.95;2.30;;;23.40;49.60;;;;;;5014071;28;20213;-51
2022/11/14 02:19:57;;;;;;;6.28;2.38;;;23.40;49.70;;;;;;5014272;28;20696;-49
2022/11/14 02:22:30;;;;;;;4.18;2.33;;;23.40;49.60;;;;;;5014032;28;20250;-47
2022/11/14 02:25:00;;;;;;;6.35;2.55;;;23.40;49.60;;;;;;5026825;28;20675;-51
2022/11/14 02:27:32;;;;;;;4.32;2.13;;;23.40;49.60;;;;;;5033308;28;20228;-49
2022/11/14 02:30:07;;;;;;;7.90;2.55;;;23.40;49.60;;;;;;5032837;28;20220;-48
2022/11/14 02:32:38;;;;;;;8.20;2.30;;;23.50;49.50;;;;;;5033408;28;20200;-50
2022/11/14 02:35:09;;;;;;;5.63;2.38;;;23.50;49.50;;;;;;5026809;28;20197;-54
2022/11/14 02:37:42;;;;;;;6.03;2.05;;;23.50;49.50;;;;;;5013742;28;20691;-54
2022/11/14 02:40:14;;;;;;;4.93;2.35;;;23.50;49.40;;;;;;5013606;28;20232;-52
2022/11/14 02:42:44;;;;;;;9.13;2.60;;;23.50;49.40;;;;;;5013873;28;20205;-54
2022/11/14 02:45:15;;;;;;;6.60;2.28;;;23.50;49.40;;;;;;5013679;28;20560;-49
2022/11/14 02:47:46;;;;;;;5.10;1.98;;;23.50;49.30;;;;;;5013608;28;20636;-50
2022/11/14 02:50:17;;;;;;;6.07;2.15;;;23.50;49.30;;;;;;5013320;28;20232;-47
2022/11/14 02:52:49;;;;;;;4.50;2.17;;;23.50;49.30;;;;;;5013678;28;20207;-50
2022/11/14 02:55:20;;;;;;;5.55;2.20;;;23.50;49.20;;;;;;5030637;28;20196;-52
2022/11/14 02:57:51;;;;;;;4.07;2.00;;;23.50;49.20;;;;;;5032718;28;20290;-50
2022/11/14 03:00:22;;;;;;;7.00;2.45;;;23.50;49.20;;;;;;5031602;28;20223;-50
2022/11/14 03:02:54;;;;;;;6.18;2.30;;;23.50;49.20;;;;;;5032360;28;20196;-46
2022/11/14 03:05:25;;;;;;;4.40;2.10;;;23.50;49.20;;;;;;5032457;28;20204;-55
2022/11/14 03:07:58;;;;;;;10.88;2.97;;;23.60;49.20;;;;;;5032819;28;20220;-46
2022/11/14 03:10:29;;;;;;;6.20;2.28;;;23.60;49.10;;;;;;5032371;28;20219;-47
2022/11/14 03:13:00;;;;;;;6.30;2.38;;;23.60;49.10;;;;;;5032383;28;20200;-51
2022/11/14 03:15:31;;;;;;;4.95;2.28;;;23.60;49.70;;;;;;5033420;28;20254;-49
2022/11/14 03:18:01;;;;;;;7.38;2.78;;;23.60;49.00;;;;;;5032468;28;20196;-51
2022/11/14 03:20:32;;;;;;;6.13;2.28;;;23.60;49.00;;;;;;5031698;28;20216;-53
2022/11/14 03:23:05;;;;;;;7.05;2.33;;;23.70;49.00;;;;;;5032450;28;20562;-46
2022/11/14 03:25:36;;;;;;;5.40;2.13;;;23.70;49.00;;;;;;5032400;28;20573;-46
2022/11/14 03:28:06;;;;;;;6.20;2.17;;;23.70;49.00;;;;;;5031963;28;20656;-49
2022/11/14 03:30:37;;;;;;;4.85;2.20;;;23.70;48.90;;;;;;5032135;28;20216;-47
2022/11/14 03:33:08;;;;;;;4.22;2.10;;;23.70;49.00;;;;;;5031948;28;20191;-55
2022/11/14 03:35:43;;;;;;;4.95;2.10;;;23.70;48.90;;;;;;5031987;28;20208;-58
2022/11/14 03:38:15;;;;;;;7.15;2.15;;;23.70;48.80;;;;;;5031938;28;20230;-48
2022/11/14 03:40:46;;;;;;;6.20;2.08;;;23.70;48.80;;;;;;5031843;28;20266;-49
2022/11/14 03:43:17;;;;;;;4.97;2.13;;;23.70;48.70;;;;;;5031535;28;20200;-48
2022/11/14 03:45:49;;;;;;;5.05;2.10;;;23.80;48.80;;;;;;5031135;28;20211;-47
2022/11/14 03:48:19;;;;;;;4.20;1.85;;;23.80;48.70;;;;;;5031623;28;20207;-47
2022/11/14 03:50:50;;;;;;;5.22;2.20;;;23.80;48.60;;;;;;5031947;28;20238;-49
2022/11/14 03:53:23;;;;;;;3.65;1.90;;;23.80;48.60;;;;;;5032064;28;20283;-49
2022/11/14 03:55:54;;;;;;;5.63;1.98;;;23.80;48.60;;;;;;5032269;28;20200;-52
2022/11/14 03:58:25;;;;;;;3.83;1.95;;;23.80;48.50;;;;;;5032412;28;20231;-46
2022/11/14 04:00:56;;;;;;;5.93;2.30;;;23.80;48.50;;;;;;5032016;28;20216;-49
2022/11/14 04:03:27;;;;;;;4.15;2.03;;;23.80;48.50;;;;;;5031747;28;20192;-50
2022/11/14 04:05:58;;;;;;;5.63;2.28;;;23.80;48.50;;;;;;5031495;28;20200;-47
2022/11/14 04:08:31;;;;;;;4.82;1.73;;;23.80;48.50;;;;;;5032144;28;20192;-49
2022/11/14 04:11:02;;;;;;;4.95;2.08;;;23.80;48.40;;;;;;5031733;28;20220;-48
2022/11/14 04:13:32;;;;;;;6.30;2.28;;;23.90;48.40;;;;;;5031207;28;20200;-46
2022/11/14 04:16:03;;;;;;;4.72;1.92;;;23.80;48.40;;;;;;5034161;28;20200;-47
2022/11/14 04:18:34;;;;;;;4.68;1.80;;;23.90;48.40;;;;;;5031350;28;21012;-48
2022/11/14 04:21:04;;;;;;;4.72;2.05;;;23.90;48.40;;;;;;5031381;28;20684;-47
2022/11/14 04:23:37;;;;;;;3.85;1.70;;;23.90;48.30;;;;;;5031589;28;20203;-53
2022/11/14 04:26:08;;;;;;;4.35;1.73;;;23.90;48.20;;;;;;5031843;28;20200;-55
2022/11/14 04:28:39;;;;;;;4.55;1.80;;;23.90;48.20;;;;;;5031672;28;20571;-49
2022/11/14 04:31:10;;;;;;;5.60;2.20;;;23.90;48.20;;;;;;5031712;28;20212;-48
2022/11/14 04:33:41;;;;;;;5.30;1.60;;;23.90;48.20;;;;;;5031027;28;20195;-48
2022/11/14 04:36:12;;;;;;;8.38;2.30;;;23.90;48.20;;;;;;5016193;28;20660;-49
2022/11/14 04:38:44;;;;;;;7.07;2.15;;;23.90;48.20;;;;;;5011857;28;20205;-46
2022/11/14 04:41:15;;;;;;;4.38;1.90;;;23.90;48.20;;;;;;5012060;28;20224;-50
2022/11/14 04:43:46;;;;;;;4.18;1.90;;;23.90;48.10;;;;;;5011117;28;20198;-49
2022/11/14 04:46:17;;;;;;;4.45;2.00;;;23.90;48.10;;;;;;5011479;28;20203;-50
2022/11/14 04:48:47;;;;;;;6.10;2.53;;;23.90;48.10;;;;;;5012289;28;20203;-54
2022/11/14 04:51:18;;;;;;;3.78;1.52;;;23.90;48.20;;;;;;5011697;28;20220;-47
2022/11/14 04:53:51;;;;;;;3.10;1.70;;;23.90;48.20;;;;;;5011629;28;20201;-52
2022/11/14 04:56:24;;;;;;;5.30;1.90;;;23.90;48.10;;;;;;5011248;28;20239;-52
2022/11/14 04:58:54;;;;;;;6.80;2.38;;;23.90;48.10;;;;;;5010651;28;20199;-50
2022/11/14 05:01:25;;;;;;;6.72;2.28;;;23.90;48.10;;;;;;5025980;28;20722;-46
2022/11/14 05:03:56;;;;;;;4.05;1.42;;;23.90;48.10;;;;;;5030327;28;20184;-50
2022/11/14 05:06:26;;;;;;;5.88;1.80;;;23.90;48.10;;;;;;5030810;28;20219;-49
2022/11/14 05:08:59;;;;;;;5.40;1.73;;;23.90;48.00;;;;;;5031066;28;20198;-51
2022/11/14 05:11:30;;;;;;;4.25;1.88;;;23.90;48.10;;;;;;5030911;28;20215;-51
2022/11/14 05:14:00;;;;;;;4.00;1.90;;;23.90;48.00;;;;;;5030764;28;20207;-53
2022/11/14 05:16:31;;;;;;;3.22;1.90;;;23.90;48.00;;;;;;5031429;28;20211;-49
2022/11/14 05:19:02;;;;;;;3.80;1.70;;;23.90;48.00;;;;;;5030782;28;20463;-53
2022/11/14 05:21:33;;;;;;;4.47;1.70;;;23.90;48.00;;;;;;5030174;28;20216;-47
2022/11/14 05:24:06;;;;;;;4.15;1.77;;;23.80;48.00;;;;;;5032086;28;20197;-49
2022/11/14 05:26:36;;;;;;;3.50;1.80;;;23.90;48.10;;;;;;5034540;28;20219;-50
2022/11/14 05:29:07;;;;;;;4.25;1.77;;;23.80;48.00;;;;;;5034015;28;20200;-53
2022/11/14 05:31:38;;;;;;;3.60;1.75;;;23.90;48.10;;;;;;5034342;28;20675;-50
2022/11/14 05:34:09;;;;;;;3.40;1.73;;;23.90;48.20;;;;;;5034719;28;20200;-48
2022/11/14 05:36:40;;;;;;;4.65;1.67;;;23.90;48.00;;;;;;5034666;28;20204;-51
2022/11/14 05:39:13;;;;;;;3.83;1.80;;;23.80;48.00;;;;;;5034235;28;20192;-50
2022/11/14 05:41:43;;;;;;;7.05;2.20;;;23.90;48.00;;;;;;5034137;28;20196;-53
2022/11/14 05:44:14;;;;;;;4.63;1.95;;;23.80;47.90;;;;;;5034064;28;20207;-51
2022/11/14 05:46:45;;;;;;;4.05;1.83;;;23.80;47.90;;;;;;5034601;28;20216;-49
2022/11/14 05:49:16;;;;;;;3.80;1.77;;;23.80;48.00;;;;;;5034365;28;20200;-54
2022/11/14 05:51:47;;;;;;;3.65;1.77;;;23.80;48.00;;;;;;5034162;28;20204;-49
2022/11/14 05:54:19;;;;;;;4.57;1.75;;;23.80;48.00;;;;;;5034165;28;20200;-50
2022/11/14 05:56:50;;;;;;;5.20;1.80;;;23.80;48.10;;;;;;5033930;28;20310;-53
2022/11/14 05:59:21;;;;;;;4.70;1.77;;;23.80;48.10;;;;;;5034030;28;20200;-54
2022/11/14 06:01:51;;;;;;;3.88;1.65;;;23.80;48.10;;;;;;5034062;28;20200;-49
2022/11/14 06:04:22;;;;;;;4.57;1.90;;;23.80;48.10;;;;;;5033768;28;20204;-53
2022/11/14 06:06:53;;;;;;;4.97;1.83;;;23.80;48.10;;;;;;5033656;28;20220;-47
2022/11/14 06:09:26;;;;;;;3.20;1.55;;;23.80;48.10;;;;;;5033746;28;20195;-50
2022/11/14 06:11:56;;;;;;;4.07;1.85;;;23.80;48.10;;;;;;5036477;28;20549;-55
2022/11/14 06:14:27;;;;;;;4.38;1.95;;;23.80;48.10;;;;;;5034088;28;20200;-48
2022/11/14 06:16:58;;;;;;;4.97;1.63;;;23.80;48.10;;;;;;5034559;28;20199;-51
2022/11/14 06:19:28;;;;;;;3.70;1.60;;;23.80;48.10;;;;;;5034054;28;20722;-49
2022/11/14 06:22:00;;;;;;;3.53;1.60;;;23.80;48.10;;;;;;5033931;28;20196;-48
2022/11/14 06:24:32;;;;;;;5.20;2.00;;;23.80;48.10;;;;;;5033662;28;20254;-46
2022/11/14 06:27:03;;;;;;;3.42;1.60;;;23.70;48.00;;;;;;5033541;28;20220;-48
2022/11/14 06:29:34;;;;;;;6.07;1.65;;;23.70;48.00;;;;;;5033410;28;20216;-51
2022/11/14 06:32:04;;;;;;;5.20;1.90;;;23.70;48.00;;;;;;5033555;28;20655;-50
2022/11/14 06:34:35;;;;;;;3.33;1.50;;;23.70;48.10;;;;;;5031470;28;20200;-48
2022/11/14 06:37:07;;;;;;;4.40;1.90;;;23.70;48.10;;;;;;5013803;28;20204;-50
2022/11/14 06:39:40;;;;;;;4.38;1.83;;;23.70;48.10;;;;;;5013477;28;20216;-51
2022/11/14 06:42:10;;;;;;;4.32;1.90;;;23.70;48.20;;;;;;5013967;28;20197;-46
2022/11/14 06:44:41;;;;;;;3.65;1.60;;;23.70;48.20;;;;;;5012791;28;20201;-55
2022/11/14 06:47:12;;;;;;;4.57;1.80;;;23.70;48.10;;;;;;5013085;28;20228;-52
2022/11/14 06:49:42;;;;;;;4.40;1.70;;;23.70;48.10;;;;;;5013790;28;20225;-48
2022/11/14 06:52:13;;;;;;;4.20;1.70;;;23.70;48.10;;;;;;5013672;28;20196;-48
2022/11/14 06:54:48;;;;;;;2.97;1.45;;;23.70;48.10;;;;;;5013115;28;20531;-48
2022/11/14 06:57:19;;;;;;;5.95;1.98;;;23.60;48.10;;;;;;5032590;28;20195;-48
2022/11/14 06:59:50;;;;;;;4.50;1.77;;;23.60;48.10;;;;;;5033011;28;20220;-53
2022/11/14 07:02:21;;;;;;;6.50;1.75;;;23.60;48.10;;;;;;5033295;28;20196;-48
2022/11/14 07:04:51;;;;;;;4.18;2.05;;;23.60;48.20;;;;;;5032590;28;20200;-47
2022/11/14 07:07:22;;;;;;;4.68;1.80;;;23.50;48.20;;;;;;5032388;28;20741;-50
2022/11/14 07:09:57;;;;;;;3.97;1.90;;;23.50;48.20;;;;;;5031936;28;20220;-49
2022/11/14 07:12:28;;;;;;;3.15;1.77;;;23.50;48.20;;;;;;5032635;28;20203;-53
2022/11/14 07:15:02;;;;;;;3.33;1.95;;;23.50;48.20;;;;;;5032615;28;20283;-52
2022/11/14 07:17:33;;;;;;;4.15;1.70;;;23.50;48.30;;;;;;5032297;28;20660;-49
2022/11/14 07:20:04;;;;;;;4.72;1.70;;;23.50;48.40;;;;;;5032421;28;20218;-50
2022/11/14 07:22:34;;;;;;;3.72;1.50;;;23.50;48.30;;;;;;5032540;28;20196;-53
2022/11/14 07:25:07;;;;;;;3.28;1.55;;;23.40;48.30;;;;;;5032869;28;20196;-52
2022/11/14 07:27:38;;;;;;;3.80;1.85;;;23.40;48.40;;;;;;5032739;28;20228;-51
2022/11/14 07:30:10;;;;;;;4.63;1.83;;;23.40;48.40;;;;;;5032432;28;20216;-50
2022/11/14 07:32:40;;;;;;;3.50;1.75;;;23.40;48.40;;;;;;5032461;28;20196;-53
2022/11/14 07:35:11;;;;;;;4.80;1.77;;;23.40;48.40;;;;;;5032070;28;20200;-47
2022/11/14 07:37:42;;;;;;;3.35;1.60;;;23.30;48.40;;;;;;5032277;28;20200;-52
2022/11/14 07:40:15;;;;;;;3.45;1.73;;;23.30;48.40;;;;;;5032117;28;20235;-51
2022/11/14 07:42:46;;;;;;;2.53;1.52;;;23.30;48.40;;;;;;5032263;28;20356;-52
2022/11/14 07:45:18;;;;;;;2.80;1.60;;;23.30;48.50;;;;;;5031657;28;20200;-50
2022/11/14 07:47:49;;;;;;;3.67;1.80;;;23.30;48.60;;;;;;5031172;28;20352;-54
2022/11/14 07:50:20;;;;;;;3.72;1.65;;;23.20;48.50;;;;;;5031597;28;20224;-54
2022/11/14 07:52:54;;;;;;;5.22;2.28;;;23.20;48.60;;;;;;5031999;28;20208;-53
2022/11/14 07:55:26;;;;;;;2.35;1.48;;;23.20;48.70;;;;;;5031776;28;20199;-53
2022/11/14 07:58:00;;;;;;;2.97;1.80;;;23.10;48.60;;;;;;5031706;28;20524;-51
2022/11/14 08:00:31;;;;;;;2.20;1.65;;;23.10;48.60;;;;;;5031397;28;20231;-48
2022/11/14 08:03:02;;;;;;;3.33;1.58;;;23.10;48.60;;;;;;5032026;28;20207;-51
2022/11/14 08:05:32;;;;;;;3.67;1.60;;;23.10;48.70;;;;;;5031714;28;20200;-51
2022/11/14 08:08:03;;;;;;;2.95;1.67;;;23.10;48.70;;;;;;5031372;28;20729;-50
2022/11/14 08:10:36;;;;;;;3.65;1.60;;;23.10;48.70;;;;;;5033675;28;20211;-50
2022/11/14 08:13:07;;;;;;;2.35;1.60;;;23.10;48.70;;;;;;5031506;28;20199;-54
2022/11/14 08:15:38;;;;;;;3.70;1.65;;;23.00;48.60;;;;;;5031663;28;20688;-53
2022/11/14 08:18:09;;;;;;;3.20;1.52;;;23.00;48.70;;;;;;5031275;28;20207;-53
2022/11/14 08:20:40;;;;;;;2.75;1.67;;;23.00;48.70;;;;;;5031558;28;20695;-55
2022/11/14 08:23:11;;;;;;;2.55;1.38;;;23.00;48.70;;;;;;5031834;28;20211;-50
2022/11/14 08:25:44;;;;;;;3.80;1.50;;;22.90;48.70;;;;;;5031614;28;20192;-56
2022/11/14 08:28:15;;;;;;;3.22;1.50;;;22.90;48.70;;;;;;5031137;28;20220;-51
2022/11/14 08:30:45;;;;;;;2.00;1.58;;;22.90;48.70;;;;;;5031002;28;20219;-50
2022/11/14 08:33:16;;;;;;;3.95;1.65;;;22.90;48.70;;;;;;5031448;28;20203;-53
2022/11/14 08:35:47;;;;;;;3.05;1.55;;;22.90;48.70;;;;;;5019369;28;20197;-53
2022/11/14 08:38:17;;;;;;;4.05;1.80;;;22.90;48.80;;;;;;5011456;28;20664;-51
2022/11/14 08:40:50;;;;;;;3.15;1.17;;;22.90;48.80;;;;;;5011522;28;20220;-51
2022/11/14 08:43:21;;;;;;;3.50;1.50;;;22.80;48.70;;;;;;5011378;28;20661;-51
2022/11/14 08:45:51;;;;;;;4.60;1.80;;;22.80;48.70;;;;;;5011708;28;20208;-53
2022/11/14 08:48:22;;;;;;;2.67;1.33;;;22.80;48.80;;;;;;5011598;28;20251;-57
2022/11/14 08:50:53;;;;;;;3.10;1.48;;;22.70;48.70;;;;;;5011713;28;20700;-54
2022/11/14 08:53:24;;;;;;;2.20;1.30;;;22.70;48.70;;;;;;5011780;28;20557;-56
2022/11/14 08:55:56;;;;;;;3.17;1.73;;;22.70;48.70;;;;;;5011763;28;20199;-57
2022/11/14 08:58:30;;;;;;;2.13;1.40;;;22.70;48.80;;;;;;5012121;28;20311;-52
2022/11/14 09:01:04;;;;;;;3.05;1.50;;;22.60;48.80;;;;;;5016740;28;20692;-53
2022/11/14 09:03:35;;;;;;;1.95;1.10;;;22.60;48.90;;;;;;5033589;28;20190;-56
2022/11/14 09:06:06;;;;;;;3.17;1.55;;;22.60;48.90;;;;;;5020511;28;20678;-57
2022/11/14 09:08:37;;;;;;;2.30;1.50;;;22.60;48.90;;;;;;5015168;28;20224;-53
2022/11/14 09:11:09;;;;;;;2.83;1.33;;;22.60;48.90;;;;;;5015314;28;20704;-57
2022/11/14 09:13:40;;;;;;;2.25;1.27;;;22.50;48.90;;;;;;5015309;28;20203;-56
2022/11/14 09:16:11;;;;;;;1.67;1.20;;;22.50;48.80;;;;;;5015396;28;20204;-54
2022/11/14 09:18:42;;;;;;;1.60;1.27;;;22.50;48.90;;;;;;5015241;28;20683;-52
2022/11/14 09:21:13;;;;;;;2.50;1.35;;;22.50;48.90;;;;;;5015109;28;20220;-54
2022/11/14 09:23:44;;;;;;;2.20;1.30;;;22.50;48.80;;;;;;5015089;28;20535;-57
2022/11/14 09:26:17;;;;;;;2.78;1.33;;;22.40;48.80;;;;;;5014836;28;20205;-51
2022/11/14 09:28:50;;;;;;;2.60;1.20;;;22.40;48.90;;;;;;5014812;28;20220;-50
2022/11/14 09:31:21;;;;;;;2.88;1.23;;;22.40;48.90;;;;;;5015526;28;20307;-54
2022/11/14 09:33:52;;;;;;;1.95;1.30;;;22.40;48.90;;;;;;5014851;28;20224;-48
2022/11/14 09:36:22;;;;;;;2.75;1.20;;;22.30;48.90;;;;;;5014809;28;20211;-54
2022/11/14 09:38:54;;;;;;;2.58;1.30;;;22.30;48.90;;;;;;5014952;28;20279;-53
2022/11/14 09:41:38;;;;;;;3.30;1.55;;;22.30;49.00;;;;;;5015088;28;20220;-52
2022/11/14 09:44:27;;;;;;;2.47;1.20;;;22.20;48.90;;;;;;5014950;28;20204;-51
2022/11/14 09:47:00;;;;;;;2.05;1.30;;;22.20;48.90;;;;;;5014895;28;20196;-50
2022/11/14 09:49:37;;;;;;;2.90;1.40;;;22.20;49.00;;;;;;5014660;28;20233;-52
2022/11/14 09:52:17;;;;;;;1.15;1.05;;;22.20;48.90;;;;;;5014860;28;20212;-49
2022/11/14 09:54:53;;;;;;;2.47;1.20;;;22.20;49.00;;;;;;5014672;28;20207;-54
2022/11/14 09:57:26;;;;;;;2.70;1.35;;;22.10;48.90;;;;;;5014526;28;20204;-51
2022/11/14 09:59:58;;;;;;;1.83;1.40;;;22.10;48.90;;;;;;5014438;28;20224;-52
2022/11/14 10:02:54;;;;;;;2.90;1.50;;;22.10;48.90;;;;;;5014655;28;20197;-52
2022/11/14 10:05:36;;;;;;;1.55;1.15;;;22.00;48.90;;;;;;5009227;28;20288;-50
2022/11/14 10:08:27;;;;;;;2.30;1.20;;;22.00;48.90;;;;;;5024299;28;20252;-49
2022/11/14 10:11:00;;;;;;;2.20;1.25;;;22.00;49.00;;;;;;5013294;28;20217;-50
2022/11/14 10:14:05;;;;;;;2.47;1.40;;;22.00;48.90;;;;;;5013918;28;20664;-50
2022/11/14 10:16:46;;;;;;;1.65;1.35;;;21.90;49.00;;;;;;4989909;28;20204;-54
2022/11/14 10:19:24;;;;;;;1.60;1.17;;;21.90;49.00;;;;;;5013979;28;20200;-53
2022/11/14 10:22:17;;;;;;;1.85;1.25;;;21.80;49.00;;;;;;5014208;28;20197;-46
2022/11/14 10:25:07;;;;;;;2.03;1.40;;;21.80;49.10;;;;;;5013978;28;20220;-52
2022/11/14 10:27:44;;;;;;;2.10;1.38;;;21.80;49.10;;;;;;5002037;28;20204;-51
2022/11/14 10:30:17;;;;;;;1.63;1.05;;;21.80;49.10;;;;;;5013772;28;20234;-51
2022/11/14 10:33:12;;;;;;;1.90;1.17;;;21.70;49.10;;;;;;5013761;28;20197;-50
2022/11/14 10:35:48;;;;;;;2.08;1.40;;;21.70;49.10;;;;;;5024837;28;20567;-49
2022/11/14 10:38:27;;;;;;;2.63;1.30;;;21.70;49.10;;;;;;5033548;28;20200;-54
2022/11/14 10:41:05;;;;;;;1.95;1.23;;;21.70;49.10;;;;;;5033277;28;20703;-53
2022/11/14 10:43:41;;;;;;;2.22;1.13;;;21.70;49.10;;;;;;5033038;28;20230;-53
2022/11/14 10:46:18;;;;;;;2.63;1.20;;;21.60;49.10;;;;;;5032723;28;20656;-51
2022/11/14 10:48:52;;;;;;;1.83;1.30;;;21.60;49.20;;;;;;5033119;28;20227;-49
2022/11/14 10:51:27;;;;;;;1.63;1.30;;;21.60;49.20;;;;;;5033035;28;20227;-53
2022/11/14 10:54:01;;;;;;;2.78;1.30;;;21.50;49.20;;;;;;5032609;28;20195;-53
2022/11/14 10:56:31;;;;;;;2.58;1.60;;;21.50;49.20;;;;;;5033095;28;20207;-53
2022/11/14 10:59:02;;;;;;;1.88;1.25;;;21.50;49.20;;;;;;5032724;28;20208;-55
2022/11/14 11:01:40;;;;;;;1.83;1.27;;;21.50;49.20;;;;;;5031795;28;20255;-49
2022/11/14 11:04:25;;;;;;;2.20;1.20;;;21.50;49.20;;;;;;5032452;28;20189;-50
2022/11/14 11:06:57;;;;;;;3.10;1.23;;;21.50;49.20;;;;;;5012820;28;20212;-50
2022/11/14 11:12:20;;;;;;;1.98;1.20;;;21.40;49.30;;;;;;5013318;28;20204;-51
2022/11/14 11:14:52;;;;;;;3.50;1.40;;;21.40;49.30;;;;;;5012871;28;20206;-50
2022/11/14 11:17:24;;;;;;;2.30;1.23;;;21.40;49.30;;;;;;5013284;28;20205;-52
2022/11/14 11:19:57;;;;;;;1.65;1.00;;;21.30;49.30;;;;;;5012527;28;20227;-53
2022/11/14 11:22:38;;;;;;;3.47;1.10;;;21.30;49.30;;;;;;5011549;28;20197;-51
2022/11/14 11:25:26;;;;;;;2.10;1.40;;;21.30;49.30;;;;;;5012787;28;20204;-51
2022/11/14 11:28:14;;;;;;;2.40;1.52;;;21.20;49.20;;;;;;5012962;28;20284;-50
2022/11/14 11:30:57;;;;;;;1.42;1.10;;;21.20;49.30;;;;;;5012463;28;20225;-53
2022/11/14 11:33:30;;;;;;;2.38;1.05;;;21.20;49.30;;;;;;5012896;28;20193;-53
2022/11/14 11:36:05;;;;;;;3.15;1.42;;;21.20;49.30;;;;;;5026295;28;20628;-52
2022/11/14 11:38:36;;;;;;;1.80;1.10;;;21.20;49.30;;;;;;5032078;28;20211;-52
2022/11/14 11:41:21;;;;;;;3.58;1.60;;;21.20;49.90;;;;;;5031608;28;20228;-52
2022/11/14 11:43:56;;;;;;;1.73;1.17;;;21.10;49.30;;;;;;5032158;28;20204;-49
2022/11/14 11:46:31;;;;;;;3.05;1.30;;;21.10;49.30;;;;;;5032346;28;20655;-51
2022/11/14 11:49:12;;;;;;;2.65;1.25;;;21.10;49.30;;;;;;5031607;28;20230;-55
2022/11/14 11:51:48;;;;;;;2.28;1.27;;;21.10;49.30;;;;;;5031791;28;20603;-54
2022/11/14 11:54:21;;;;;;;2.72;1.27;;;21.10;49.20;;;;;;5031564;28;20192;-48
2022/11/14 11:56:59;;;;;;;2.33;1.30;;;21.00;49.20;;;;;;5032170;28;20652;-54
2022/11/14 11:59:35;;;;;;;1.63;1.10;;;21.10;49.30;;;;;;5030092;28;20200;-55
2022/11/14 12:02:18;;;;;;;1.45;0.93;;;21.00;49.20;;;;;;5031561;28;20199;-58
2022/11/14 12:04:51;;;;;;;1.75;1.15;;;21.00;49.30;;;;;;5032439;28;20207;-55
2022/11/14 12:07:26;;;;;;;2.53;1.10;;;21.00;49.30;;;;;;5012025;28;20200;-57
2022/11/14 12:09:59;;;;;;;1.65;1.10;;;20.90;49.30;;;;;;5014644;28;20250;-52
2022/11/14 12:12:57;;;;;;;3.75;1.70;;;20.90;49.30;;;;;;5032094;28;20200;-57
2022/11/14 12:15:35;;;;;;;3.22;1.48;;;20.90;49.20;;;;;;5041256;28;20191;-57
2022/11/14 12:18:39;;;;;;;3.72;1.30;;;20.90;49.20;;;;;;5050646;28;20192;-53
2022/11/14 12:21:20;;;;;;;2.67;1.65;;;20.80;49.10;;;;;;5031150;28;20216;-55
2022/11/14 12:24:36;;;;;;;2.70;1.50;;;20.80;49.10;;;;;;5029526;28;20199;-51
2022/11/14 12:27:21;;;;;;;3.25;1.27;;;20.80;49.20;;;;;;5031433;28;20246;-56
2022/11/14 12:30:05;;;;;;;1.70;1.15;;;20.80;49.20;;;;;;5030890;28;20403;-54
2022/11/14 12:32:42;;;;;;;4.13;1.35;;;20.70;49.20;;;;;;5031158;28;20188;-58
2022/11/14 12:35:20;;;;;;;1.67;1.20;;;20.70;49.80;;;;;;5030706;28;20234;-55
2022/11/14 12:37:54;;;;;;;2.38;1.10;;;20.70;49.20;;;;;;5031267;28;20203;-57
2022/11/14 12:40:35;;;;;;;2.00;1.02;;;20.60;49.20;;;;;;5030462;28;20227;-57
2022/11/14 12:43:07;;;;;;;3.00;1.10;;;20.60;49.20;;;;;;5030331;28;20192;-56
2022/11/14 12:46:05;;;;;;;2.83;1.50;;;20.60;49.30;;;;;;5030585;28;20196;-55
2022/11/14 12:48:38;;;;;;;3.88;1.45;;;20.50;49.30;;;;;;5030967;28;20200;-57
2022/11/14 12:51:41;;;;;;;2.80;1.23;;;20.50;49.30;;;;;;5027969;28;20226;-54
2022/11/14 12:54:48;;;;;;;1.90;1.17;;;20.50;49.30;;;;;;4950198;29;20202;-55
2022/11/14 12:57:49;;;;;;;2.17;0.90;;;20.50;49.30;;;;;;5047709;28;20667;-55
2022/11/14 13:00:21;;;;;;;2.90;1.30;;;20.50;49.20;;;;;;5011457;28;20216;-49
2022/11/14 13:03:13;;;;;;;4.25;1.30;;;20.50;49.20;;;;;;5011443;28;20204;-52
2022/11/14 13:05:58;;;;;;;3.08;1.20;;;20.50;49.30;;;;;;5022370;28;20227;-49
2022/11/14 13:08:58;;;;;;;1.75;1.35;;;20.50;49.20;;;;;;5033108;28;20202;-50
2022/11/14 13:24:00;;;;;;;1.70;0.95;;;20.30;49.20;;;;;;5030878;28;20719;-51
2022/11/14 13:26:48;;;;;;;2.22;1.27;;;20.30;49.20;;;;;;5030759;28;20203;-57
2022/11/14 13:30:01;;;;;;;2.33;1.10;;;20.30;49.30;;;;;;5030528;28;20227;-56
2022/11/14 13:33:06;;;;;;;2.05;1.08;;;20.30;49.30;;;;;;5030997;28;20620;-57
2022/11/14 13:36:05;;;;;;;1.67;1.10;;;20.30;49.20;;;;;;5020706;28;20679;-56
2022/11/14 13:39:01;;;;;;;2.10;1.20;;;20.30;49.20;;;;;;4997638;28;20210;-56